createdAt,value
2023-03-07T00:01:24.381Z,4.50
2023-03-07T00:03:53.070Z,4.18
2023-03-07T00:06:21.871Z,4.32
2023-03-07T00:08:51.577Z,4.20
2023-03-07T00:11:20.281Z,4.10
2023-03-07T00:13:48.940Z,4.30
2023-03-07T00:16:18.860Z,4.22
2023-03-07T00:18:48.948Z,4.28
2023-03-07T00:21:19.124Z,4.07
2023-03-07T00:23:47.822Z,4.10
2023-03-07T00:26:17.638Z,4.03
2023-03-07T00:28:48.070Z,4.80
2023-03-07T00:31:16.893Z,4.68
2023-03-07T00:33:45.768Z,4.68
2023-03-07T00:36:17.205Z,4.25
2023-03-07T00:38:46.222Z,4.30
2023-03-07T00:41:15.791Z,4.43
2023-03-07T00:43:45.662Z,4.35
2023-03-07T00:46:14.414Z,4.57
2023-03-07T00:48:43.297Z,4.70
2023-03-07T00:51:13.671Z,4.80
2023-03-07T00:53:43.421Z,4.28
2023-03-07T00:56:15.259Z,4.60
2023-03-07T00:58:43.854Z,4.78
2023-03-07T01:01:13.500Z,4.32
2023-03-07T01:03:42.251Z,4.40
2023-03-07T01:06:13.718Z,4.40
2023-03-07T01:08:43.848Z,4.53
2023-03-07T01:11:12.949Z,4.60
2023-03-07T01:13:41.761Z,4.53
2023-03-07T01:16:11.917Z,4.65
2023-03-07T01:18:40.573Z,4.40
2023-03-07T01:21:16.773Z,4.65
2023-03-07T01:23:46.856Z,4.70
2023-03-07T01:26:15.781Z,4.68
2023-03-07T01:28:44.316Z,4.43
2023-03-07T01:31:12.980Z,4.28
2023-03-07T01:33:41.901Z,4.63
2023-03-07T01:36:18.484Z,4.57
2023-03-07T01:38:48.649Z,4.18
2023-03-07T01:41:17.375Z,4.60
2023-03-07T01:43:45.904Z,4.60
2023-03-07T01:46:48.016Z,4.32
2023-03-07T01:49:23.958Z,4.45
2023-03-07T01:51:55.221Z,4.50
2023-03-07T01:54:25.691Z,4.50
2023-03-07T01:56:54.290Z,4.60
2023-03-07T01:59:27.108Z,4.53
2023-03-07T02:01:55.647Z,4.78
2023-03-07T02:04:29.891Z,4.28
2023-03-07T02:06:58.441Z,4.30
2023-03-07T02:09:28.764Z,5.07
2023-03-07T02:11:57.994Z,4.50
2023-03-07T02:14:26.715Z,4.20
2023-03-07T02:16:55.558Z,4.57
2023-03-07T02:19:31.988Z,4.30
2023-03-07T02:22:08.985Z,4.47
2023-03-07T02:24:43.901Z,4.40
2023-03-07T02:27:14.053Z,4.05
2023-03-07T02:29:42.528Z,3.97
2023-03-07T02:32:11.137Z,3.88
2023-03-07T02:34:40.028Z,4.55
2023-03-07T02:37:11.962Z,4.60
2023-03-07T02:39:40.842Z,4.38
2023-03-07T02:42:12.368Z,4.35
2023-03-07T02:44:42.281Z,4.30
2023-03-07T02:47:11.058Z,3.97
2023-03-07T02:49:39.801Z,4.07
2023-03-07T02:52:08.642Z,4.38
2023-03-07T02:54:37.193Z,4.07
2023-03-07T02:57:06.207Z,4.20
2023-03-07T02:59:34.735Z,4.00
2023-03-07T03:02:04.733Z,4.20
2023-03-07T03:04:33.369Z,3.72
2023-03-07T03:07:02.088Z,4.07
2023-03-07T03:09:31.610Z,4.22
2023-03-07T03:12:00.300Z,4.07
2023-03-07T03:14:28.925Z,3.85
2023-03-07T03:16:57.546Z,4.13
2023-03-07T03:19:27.570Z,4.18
2023-03-07T03:21:56.244Z,4.13
2023-03-07T03:24:24.770Z,4.53
2023-03-07T03:26:53.351Z,3.47
2023-03-07T03:29:22.753Z,4.47
2023-03-07T03:31:51.264Z,4.35
2023-03-07T03:34:20.160Z,4.05
2023-03-07T03:36:50.167Z,4.20
2023-03-07T03:39:18.809Z,4.13
2023-03-07T03:41:47.321Z,3.80
2023-03-07T03:44:16.156Z,4.05
2023-03-07T03:46:44.708Z,4.03
2023-03-07T03:49:14.135Z,3.90
2023-03-07T03:51:42.714Z,3.90
2023-03-07T03:54:12.741Z,4.15
2023-03-07T03:56:41.496Z,4.07
2023-03-07T03:59:10.452Z,3.88
2023-03-07T04:01:39.045Z,4.03
2023-03-07T04:04:07.815Z,4.40
2023-03-07T04:06:36.474Z,3.92
2023-03-07T04:09:05.547Z,4.22
2023-03-07T04:11:35.598Z,4.15
2023-03-07T04:14:04.179Z,3.80
2023-03-07T04:16:32.798Z,4.15
2023-03-07T04:19:01.533Z,4.32
2023-03-07T04:21:30.180Z,4.10
2023-03-07T04:23:58.823Z,3.80
2023-03-07T04:26:27.361Z,3.50
2023-03-07T04:28:57.421Z,3.72
2023-03-07T04:31:27.428Z,3.67
2023-03-07T04:33:57.041Z,3.97
2023-03-07T04:36:25.780Z,3.47
2023-03-07T04:38:54.439Z,3.90
2023-03-07T04:41:26.277Z,3.55
2023-03-07T04:43:56.131Z,4.00
2023-03-07T04:46:25.050Z,3.85
2023-03-07T04:48:53.684Z,3.47
2023-03-07T04:51:22.194Z,3.90
2023-03-07T04:53:50.962Z,3.58
2023-03-07T04:56:19.788Z,3.92
2023-03-07T04:58:48.516Z,3.70
2023-03-07T05:01:18.432Z,3.88
2023-03-07T05:03:47.143Z,3.70
2023-03-07T05:06:16.439Z,3.65
2023-03-07T05:08:45.228Z,3.63
2023-03-07T05:11:14.053Z,3.90
2023-03-07T05:13:42.813Z,3.40
2023-03-07T05:16:11.483Z,3.88
2023-03-07T05:18:41.431Z,3.97
2023-03-07T05:21:10.054Z,3.40
2023-03-07T05:23:38.964Z,3.78
2023-03-07T05:26:07.667Z,3.55
2023-03-07T05:28:36.335Z,3.35
2023-03-07T05:31:05.169Z,3.45
2023-03-07T05:33:33.766Z,3.70
2023-03-07T05:36:04.548Z,3.30
2023-03-07T05:38:33.332Z,3.90
2023-03-07T05:41:01.873Z,3.55
2023-03-07T05:43:30.543Z,3.30
2023-03-07T05:45:59.058Z,3.13
2023-03-07T05:48:27.616Z,3.40
2023-03-07T05:50:56.350Z,3.53
2023-03-07T05:53:26.342Z,3.60
2023-03-07T05:55:54.901Z,3.55
2023-03-07T05:58:23.716Z,3.63
2023-03-07T06:00:52.239Z,3.92
2023-03-07T06:03:20.759Z,7.13
2023-03-07T06:05:51.205Z,6.95
2023-03-07T06:08:19.776Z,8.02
2023-03-07T06:10:52.320Z,6.90
2023-03-07T06:13:22.724Z,6.47
2023-03-07T06:15:51.880Z,7.05
2023-03-07T06:18:20.717Z,6.60
2023-03-07T06:20:57.991Z,6.43
2023-03-07T06:23:27.121Z,6.60
2023-03-07T06:25:57.239Z,6.05
2023-03-07T06:28:25.877Z,6.05
2023-03-07T06:30:54.572Z,6.43
2023-03-07T06:33:23.204Z,6.00
2023-03-07T06:35:51.912Z,6.20
2023-03-07T06:38:20.633Z,6.05
2023-03-07T06:40:57.793Z,5.75
2023-03-07T06:43:26.363Z,6.28
2023-03-07T06:45:55.079Z,5.82
2023-03-07T06:48:23.992Z,5.82
2023-03-07T06:50:52.637Z,5.70
2023-03-07T06:53:21.437Z,6.20
2023-03-07T06:55:51.034Z,6.65
2023-03-07T06:58:21.097Z,5.93
2023-03-07T07:00:49.675Z,5.82
2023-03-07T07:03:18.389Z,5.97
2023-03-07T07:05:47.092Z,6.03
2023-03-07T07:08:15.890Z,5.78
2023-03-07T07:10:44.662Z,5.65
2023-03-07T07:13:15.688Z,6.20
2023-03-07T07:15:45.620Z,5.97
2023-03-07T07:18:15.021Z,5.38
2023-03-07T07:20:43.623Z,6.03
2023-03-07T07:23:12.242Z,5.70
2023-03-07T07:25:40.913Z,5.00
2023-03-07T07:28:09.518Z,6.13
2023-03-07T07:30:38.034Z,5.88
2023-03-07T07:33:08.115Z,5.68
2023-03-07T07:35:37.070Z,5.55
2023-03-07T07:38:05.877Z,5.30
2023-03-07T07:40:34.416Z,5.50
2023-03-07T07:43:03.030Z,5.40
2023-03-07T07:45:31.637Z,6.28
2023-03-07T07:48:00.130Z,5.65
2023-03-07T07:50:30.216Z,5.15
2023-03-07T07:52:59.073Z,5.05
2023-03-07T07:55:28.647Z,5.32
2023-03-07T07:57:57.318Z,4.97
2023-03-07T08:00:26.647Z,5.30
2023-03-07T08:02:55.212Z,5.38
2023-03-07T08:05:23.991Z,5.32
2023-03-07T08:07:53.956Z,5.55
2023-03-07T08:10:22.635Z,5.40
2023-03-07T08:12:52.549Z,5.40
2023-03-07T08:15:22.411Z,4.97
2023-03-07T08:17:52.648Z,5.25
2023-03-07T08:20:22.611Z,5.00
2023-03-07T08:22:53.009Z,4.32
2023-03-07T08:25:24.311Z,5.40
2023-03-07T08:27:55.101Z,4.88
2023-03-07T08:30:23.977Z,5.00
2023-03-07T08:32:52.660Z,4.78
2023-03-07T08:35:21.399Z,4.70
2023-03-07T08:37:50.733Z,4.88
2023-03-07T08:40:19.746Z,4.85
2023-03-07T08:42:49.638Z,4.72
2023-03-07T08:45:18.450Z,4.85
2023-03-07T08:47:47.111Z,4.55
2023-03-07T08:50:16.549Z,5.18
2023-03-07T08:52:45.103Z,5.22
2023-03-07T08:55:13.995Z,5.15
2023-03-07T08:57:42.604Z,4.65
2023-03-07T09:00:14.278Z,5.10
2023-03-07T09:02:43.247Z,4.50
2023-03-07T09:05:11.775Z,4.93
2023-03-07T09:07:40.386Z,4.43
2023-03-07T09:10:11.622Z,4.40
2023-03-07T09:12:40.211Z,4.57
2023-03-07T09:15:10.466Z,4.63
2023-03-07T09:17:40.449Z,4.38
2023-03-07T09:20:13.698Z,4.93
2023-03-07T09:22:42.261Z,4.47
2023-03-07T09:25:11.521Z,4.20
2023-03-07T09:27:40.050Z,4.60
2023-03-07T09:30:10.843Z,4.63
2023-03-07T09:32:40.977Z,3.92
2023-03-07T09:35:10.423Z,4.55
2023-03-07T09:37:39.109Z,4.55
2023-03-07T09:40:09.711Z,4.32
2023-03-07T09:42:42.433Z,3.90
2023-03-07T09:45:20.681Z,4.00
2023-03-07T09:48:40.573Z,4.40
2023-03-07T09:51:15.785Z,4.05
2023-03-07T09:53:45.406Z,4.30
2023-03-07T09:56:17.801Z,4.18
2023-03-07T09:58:50.118Z,4.20
2023-03-07T10:01:19.673Z,4.05
2023-03-07T10:03:54.397Z,3.90
2023-03-07T10:06:27.349Z,4.03
2023-03-07T10:08:55.959Z,4.20
2023-03-07T10:11:30.968Z,3.58
2023-03-07T10:14:10.992Z,3.88
2023-03-07T10:16:46.430Z,4.50
2023-03-07T10:19:21.159Z,4.10
2023-03-07T10:21:54.245Z,3.70
2023-03-07T10:24:38.200Z,3.55
2023-03-07T10:27:08.009Z,5.97
2023-03-07T10:29:42.213Z,9.30
2023-03-07T10:32:30.542Z,5.25
2023-03-07T10:35:02.828Z,5.28
2023-03-07T10:37:44.973Z,6.25
2023-03-07T10:40:21.123Z,6.55
2023-03-07T10:42:49.841Z,7.18
2023-03-07T10:45:18.883Z,7.63
2023-03-07T10:47:47.465Z,6.75
2023-03-07T10:50:32.775Z,7.00
2023-03-07T10:53:04.169Z,9.15
2023-03-07T10:55:41.031Z,8.85
2023-03-07T10:58:21.407Z,7.88
2023-03-07T11:01:18.361Z,8.88
2023-03-07T11:03:53.863Z,7.20
2023-03-07T11:06:40.619Z,6.60
2023-03-07T11:09:20.397Z,8.18
2023-03-07T11:11:52.304Z,8.05
2023-03-07T11:14:22.008Z,7.55
2023-03-07T11:16:53.507Z,7.38
2023-03-07T11:19:37.970Z,8.93
2023-03-07T11:22:23.122Z,8.77
2023-03-07T11:24:58.044Z,9.40
2023-03-07T11:27:34.078Z,7.70
2023-03-07T11:30:25.329Z,6.85
2023-03-07T11:33:03.432Z,7.97
2023-03-07T11:35:54.030Z,8.32
2023-03-07T11:38:31.595Z,7.63
2023-03-07T11:41:04.132Z,8.38
2023-03-07T11:43:47.695Z,7.85
2023-03-07T11:46:21.599Z,8.18
2023-03-07T11:48:57.890Z,7.70
2023-03-07T11:51:41.995Z,8.02
2023-03-07T11:54:19.496Z,8.85
2023-03-07T11:56:51.288Z,6.95
2023-03-07T12:00:04.664Z,7.68
2023-03-07T12:02:57.129Z,7.00
2023-03-07T12:05:39.779Z,7.90
2023-03-07T12:08:42.803Z,7.28
2023-03-07T12:11:23.357Z,6.63
2023-03-07T12:13:57.742Z,6.93
2023-03-07T12:16:31.038Z,7.32
2023-03-07T12:19:27.136Z,7.30
2023-03-07T12:22:20.974Z,6.30
2023-03-07T12:25:01.157Z,6.38
2023-03-07T12:27:33.172Z,6.13
2023-03-07T12:30:04.359Z,5.80
2023-03-07T12:32:33.844Z,6.75
2023-03-07T12:35:07.247Z,6.28
2023-03-07T12:37:39.300Z,5.63
2023-03-07T12:40:23.078Z,5.13
2023-03-07T12:42:56.837Z,6.07
2023-03-07T12:45:27.271Z,5.90
2023-03-07T12:48:04.879Z,5.82
2023-03-07T12:50:37.330Z,12.38
2023-03-07T12:53:07.714Z,5.50
2023-03-07T12:55:39.828Z,5.60
2023-03-07T12:58:14.532Z,5.07
2023-03-07T13:00:46.539Z,5.43
2023-03-07T13:03:20.859Z,5.85
2023-03-07T13:05:49.577Z,5.13
2023-03-07T13:08:22.481Z,5.10
2023-03-07T13:10:51.328Z,5.22
2023-03-07T13:14:00.609Z,4.97
2023-03-07T13:16:44.113Z,5.10
2023-03-07T13:19:54.085Z,4.57
2023-03-07T13:23:00.614Z,5.20
2023-03-07T13:25:56.030Z,5.25
2023-03-07T13:28:39.345Z,5.05
2023-03-07T13:31:51.320Z,4.80
2023-03-07T13:34:51.589Z,5.03
2023-03-07T13:37:52.483Z,4.97
2023-03-07T13:40:43.657Z,4.90
2023-03-07T13:43:35.451Z,4.60
2023-03-07T13:46:04.413Z,4.88
2023-03-07T13:49:04.447Z,4.60
2023-03-07T13:51:32.990Z,4.35
2023-03-07T13:54:03.877Z,4.80
2023-03-07T13:56:36.512Z,4.25
2023-03-07T13:59:12.356Z,4.90
2023-03-07T14:01:44.382Z,4.40
2023-03-07T14:04:24.227Z,4.95
2023-03-07T14:07:00.768Z,4.93
2023-03-07T14:09:42.136Z,4.40
2023-03-07T14:12:16.873Z,4.63
2023-03-07T14:14:54.957Z,4.30
2023-03-07T14:17:33.475Z,4.75
2023-03-07T14:20:11.574Z,4.70
2023-03-07T14:22:56.561Z,4.25
2023-03-07T14:25:25.668Z,4.15
2023-03-07T14:27:57.382Z,4.55
2023-03-07T14:30:27.444Z,4.65
2023-03-07T14:32:56.826Z,4.22
2023-03-07T14:35:41.329Z,4.38
2023-03-07T14:38:12.948Z,4.28
2023-03-07T14:40:50.570Z,4.20
2023-03-07T14:43:30.523Z,4.40
2023-03-07T14:46:03.279Z,4.25
2023-03-07T14:48:55.588Z,3.85
2023-03-07T14:51:27.979Z,4.45
2023-03-07T14:53:57.053Z,3.92
2023-03-07T14:56:27.799Z,4.03
2023-03-07T14:58:57.664Z,4.75
2023-03-07T15:01:31.838Z,4.05
2023-03-07T15:04:00.642Z,4.55
2023-03-07T15:06:31.582Z,3.78
2023-03-07T15:09:01.401Z,3.90
2023-03-07T15:11:34.044Z,4.07
2023-03-07T15:14:04.294Z,4.18
2023-03-07T15:16:36.673Z,4.85
2023-03-07T15:19:07.629Z,3.70
2023-03-07T15:21:40.081Z,4.32
2023-03-07T15:24:17.802Z,3.67
2023-03-07T15:26:50.946Z,4.20
2023-03-07T15:29:20.560Z,4.07
2023-03-07T15:31:54.010Z,3.72
2023-03-07T15:34:26.361Z,3.88
2023-03-07T15:37:22.519Z,4.28
2023-03-07T15:39:57.822Z,3.83
2023-03-07T15:42:26.446Z,4.40
2023-03-07T15:44:55.914Z,4.15
2023-03-07T15:47:24.784Z,3.88
2023-03-07T15:49:56.689Z,4.03
2023-03-07T15:52:32.372Z,3.50
2023-03-07T15:55:01.679Z,10.10
2023-03-07T15:57:32.956Z,9.63
2023-03-07T16:00:02.884Z,5.78
2023-03-07T16:02:49.511Z,6.20
2023-03-07T16:05:38.354Z,6.00
2023-03-07T16:08:16.275Z,5.38
2023-03-07T16:10:50.223Z,5.20
2023-03-07T16:13:21.207Z,4.82
2023-03-07T16:16:01.366Z,4.88
2023-03-07T16:18:31.281Z,4.75
2023-03-07T16:21:00.028Z,5.35
2023-03-07T16:23:31.532Z,5.20
2023-03-07T16:26:00.578Z,4.75
2023-03-07T16:28:29.508Z,4.85
2023-03-07T16:30:58.229Z,4.53
2023-03-07T16:33:26.956Z,4.65
2023-03-07T16:35:55.657Z,4.55
2023-03-07T16:38:24.431Z,4.63
2023-03-07T16:40:54.504Z,4.53
2023-03-07T16:43:34.180Z,4.65
2023-03-07T16:46:04.365Z,4.22
2023-03-07T16:48:33.017Z,4.60
2023-03-07T16:51:01.858Z,4.15
2023-03-07T16:53:30.550Z,4.80
2023-03-07T16:56:00.496Z,4.50
2023-03-07T16:58:30.549Z,4.38
2023-03-07T17:01:00.173Z,4.30
2023-03-07T17:03:29.877Z,4.05
2023-03-07T17:05:58.773Z,4.40
2023-03-07T17:08:27.420Z,4.22
2023-03-07T17:10:56.090Z,4.18
2023-03-07T17:13:26.235Z,4.47
2023-03-07T17:15:54.988Z,3.97
2023-03-07T17:18:26.711Z,4.38
2023-03-07T17:20:55.410Z,4.70
2023-03-07T17:23:24.061Z,4.70
2023-03-07T17:25:52.711Z,4.07
2023-03-07T17:28:21.414Z,4.32
2023-03-07T17:30:51.431Z,4.35
2023-03-07T17:33:20.842Z,3.97
2023-03-07T17:35:49.530Z,4.45
2023-03-07T17:38:18.423Z,4.28
2023-03-07T17:40:47.362Z,3.90
2023-03-07T17:43:15.998Z,4.47
2023-03-07T17:45:44.574Z,4.00
2023-03-07T17:48:14.505Z,4.20
2023-03-07T17:50:43.194Z,4.10
2023-03-07T17:53:12.496Z,4.20
2023-03-07T17:55:41.288Z,4.97
2023-03-07T17:58:10.177Z,3.90
2023-03-07T18:00:39.233Z,4.55
2023-03-07T18:03:08.151Z,4.43
2023-03-07T18:05:40.055Z,4.57
2023-03-07T18:08:09.828Z,4.68
2023-03-07T18:10:38.508Z,4.82
2023-03-07T18:13:08.751Z,4.40
2023-03-07T18:15:38.650Z,4.40
2023-03-07T18:18:07.349Z,4.15
2023-03-07T18:20:37.458Z,5.10
2023-03-07T18:23:06.137Z,4.82
2023-03-07T18:25:34.677Z,4.85
2023-03-07T18:28:04.495Z,4.95
2023-03-07T18:30:34.260Z,4.57
2023-03-07T18:33:02.926Z,5.20
2023-03-07T18:35:31.514Z,5.00
2023-03-07T18:38:01.752Z,4.93
2023-03-07T18:40:30.435Z,4.80
2023-03-07T18:43:00.549Z,4.75
2023-03-07T18:45:29.481Z,5.15
2023-03-07T18:47:58.243Z,5.22
2023-03-07T18:50:27.025Z,5.47
2023-03-07T18:52:57.165Z,5.78
2023-03-07T18:55:27.364Z,10.18
2023-03-07T18:57:56.167Z,19.95
2023-03-07T19:00:25.211Z,11.57
2023-03-07T19:02:53.795Z,11.10
2023-03-07T19:05:22.764Z,9.40
2023-03-07T19:07:51.486Z,7.90
2023-03-07T19:10:20.323Z,8.95
2023-03-07T19:12:50.329Z,8.65
2023-03-07T19:15:19.289Z,7.80
2023-03-07T19:17:48.194Z,7.22
2023-03-07T19:20:17.285Z,7.13
2023-03-07T19:22:46.217Z,7.72
2023-03-07T19:25:14.948Z,7.30
2023-03-07T19:27:43.523Z,20.15
2023-03-07T19:30:16.115Z,18.55
2023-03-07T19:32:44.821Z,10.30
2023-03-07T19:35:13.758Z,9.43
2023-03-07T19:37:42.298Z,13.27
2023-03-07T19:40:12.953Z,10.45
2023-03-07T19:42:41.855Z,9.05
2023-03-07T19:45:11.721Z,9.32
2023-03-07T19:47:41.678Z,9.52
2023-03-07T19:50:12.678Z,10.07
2023-03-07T19:52:42.030Z,9.43
2023-03-07T19:55:11.462Z,10.05
2023-03-07T19:57:40.326Z,10.07
2023-03-07T20:00:11.007Z,9.70
2023-03-07T20:02:41.069Z,8.95
2023-03-07T20:05:10.821Z,9.65
2023-03-07T20:07:42.084Z,9.10
2023-03-07T20:10:13.034Z,8.85
2023-03-07T20:12:41.658Z,8.00
2023-03-07T20:15:12.246Z,9.18
2023-03-07T20:17:42.534Z,8.35
2023-03-07T20:20:13.280Z,8.38
2023-03-07T20:22:42.479Z,8.45
2023-03-07T20:25:11.764Z,7.75
2023-03-07T20:27:41.221Z,7.30
2023-03-07T20:30:12.206Z,7.03
2023-03-07T20:32:42.247Z,7.80
2023-03-07T20:35:11.427Z,7.20
2023-03-07T20:37:39.970Z,7.63
2023-03-07T20:40:11.052Z,7.07
2023-03-07T20:42:39.574Z,7.43
2023-03-07T20:45:09.665Z,7.40
2023-03-07T20:47:38.556Z,7.18
2023-03-07T20:50:10.188Z,7.13
2023-03-07T20:52:38.757Z,7.35
2023-03-07T20:55:08.794Z,6.57
2023-03-07T20:57:37.466Z,7.03
2023-03-07T21:00:08.545Z,7.00
2023-03-07T21:02:37.504Z,6.38
2023-03-07T21:05:08.995Z,6.53
2023-03-07T21:07:38.122Z,6.70
2023-03-07T21:10:07.703Z,6.45
2023-03-07T21:12:36.952Z,6.38
2023-03-07T21:15:06.421Z,5.90
2023-03-07T21:17:35.989Z,6.40
2023-03-07T21:20:06.002Z,6.30
2023-03-07T21:22:36.024Z,6.22
2023-03-07T21:25:06.450Z,6.10
2023-03-07T21:27:35.691Z,6.30
2023-03-07T21:30:04.848Z,6.22
2023-03-07T21:32:33.995Z,5.63
2023-03-07T21:35:04.274Z,6.35
2023-03-07T21:37:37.768Z,5.65
2023-03-07T21:40:08.418Z,6.55
2023-03-07T21:42:39.894Z,6.20
2023-03-07T21:45:10.935Z,7.63
2023-03-07T21:47:40.216Z,7.72
2023-03-07T21:50:11.397Z,8.75
2023-03-07T21:52:41.616Z,8.85
2023-03-07T21:55:11.863Z,9.15
2023-03-07T21:57:40.707Z,8.73
2023-03-07T22:00:10.935Z,8.15
2023-03-07T22:02:39.822Z,8.73
2023-03-07T22:05:09.255Z,8.75
2023-03-07T22:07:38.184Z,8.27
2023-03-07T22:10:09.259Z,8.55
2023-03-07T22:12:37.801Z,7.97
2023-03-07T22:15:08.088Z,7.97
2023-03-07T22:17:36.717Z,8.13
2023-03-07T22:20:06.230Z,7.32
2023-03-07T22:22:34.859Z,7.35
2023-03-07T22:25:03.605Z,7.55
2023-03-07T22:27:34.100Z,7.10
2023-03-07T22:30:03.116Z,7.72
2023-03-07T22:32:32.174Z,7.20
2023-03-07T22:35:01.211Z,7.10
2023-03-07T22:37:29.785Z,7.78
2023-03-07T22:39:58.393Z,7.78
2023-03-07T22:42:26.992Z,7.53
2023-03-07T22:44:57.641Z,7.45
2023-03-07T22:47:26.230Z,7.03
2023-03-07T22:49:54.855Z,7.20
2023-03-07T22:52:23.549Z,7.20
2023-03-07T22:54:52.326Z,6.97
2023-03-07T22:57:20.931Z,6.55
2023-03-07T22:59:49.704Z,6.70
2023-03-07T23:02:19.677Z,6.65
2023-03-07T23:04:48.465Z,6.07
2023-03-07T23:07:17.343Z,6.55
2023-03-07T23:09:45.905Z,6.35
2023-03-07T23:12:14.519Z,6.43
2023-03-07T23:14:43.060Z,6.10
2023-03-07T23:17:11.680Z,5.78
2023-03-07T23:19:41.713Z,5.60
2023-03-07T23:22:10.350Z,6.40
2023-03-07T23:24:39.079Z,6.70
2023-03-07T23:27:07.739Z,6.32
2023-03-07T23:29:36.359Z,5.60
2023-03-07T23:32:05.501Z,6.35
2023-03-07T23:34:35.486Z,6.20
2023-03-07T23:37:05.535Z,6.32
2023-03-07T23:39:34.574Z,5.70
2023-03-07T23:42:03.106Z,5.85
2023-03-07T23:44:31.778Z,5.78
2023-03-07T23:47:00.417Z,5.57
2023-03-07T23:49:29.270Z,6.05
2023-03-07T23:51:58.088Z,5.20
2023-03-07T23:54:28.422Z,5.60
2023-03-07T23:56:56.985Z,6.13
2023-03-07T23:59:25.724Z,5.70
